Time;durP1;ratioP1;P1;durP2;ratioP2;P2;SDS_P1;SDS_P2;PMS_P1;PMS_P2;Temp;Humidity;BMP_temperature;BMP_pressure;BME280_temperature;BME280_humidity;BME280_pressure;Samples;Min_cycle;Max_cycle;Signal;HPM_P1;HPM_P2
2022/07/11 00:02:21;;;;;;;;;;;;;;;18.76;79.01;99305.53;4912995;29;19933;-68
2022/07/11 00:04:46;;;;;;;;;;;;;;;18.80;78.86;99300.91;4912498;29;20320;-69
2022/07/11 00:07:14;;;;;;;;;;;;;;;18.79;78.69;99299.28;4910630;29;20322;-69
2022/07/11 00:09:40;;;;;;;;;;;;;;;18.80;78.40;99297.31;4926595;29;20009;-67
2022/07/11 00:12:07;;;;;;;;;;;;;;;18.81;78.23;99298.94;4925461;29;20015;-66
2022/07/11 00:14:32;;;;;;;;;;;;;;;18.82;78.27;99303.34;4912307;29;19927;-68
2022/07/11 00:16:58;;;;;;;;;;;;;;;18.79;78.23;99307.59;4909558;29;19949;-69
2022/07/11 00:19:24;;;;;;;;;;;;;;;18.75;78.41;99306.69;4908938;29;19975;-68
2022/07/11 00:21:50;;;;;;;;;;;;;;;18.71;78.52;99320.38;4911763;29;19934;-67
2022/07/11 00:24:19;;;;;;;;;;;;;;;18.69;78.90;99324.63;4909137;29;19973;-69
2022/07/11 00:26:46;;;;;;;;;;;;;;;18.68;78.83;99332.16;4908416;29;19990;-69
2022/07/11 00:29:12;;;;;;;;;;;;;;;18.69;78.56;99330.19;4926042;29;19931;-69
2022/07/11 00:31:37;;;;;;;;;;;;;;;18.72;78.26;99337.78;4908074;29;19935;-71
2022/07/11 00:34:03;;;;;;;;;;;;;;;18.75;78.20;99347.38;4923708;29;20235;-70
2022/07/11 00:36:31;;;;;;;;;;;;;;;18.75;78.13;99336.31;4912507;29;20033;-70
2022/07/11 00:38:57;;;;;;;;;;;;;;;18.74;77.99;99340.22;4913874;29;19946;-70
2022/07/11 00:41:24;;;;;;;;;;;;;;;18.75;78.17;99341.84;4910438;29;19955;-71
2022/07/11 00:43:51;;;;;;;;;;;;;;;18.76;78.06;99338.75;4908327;29;19926;-70
2022/07/11 00:46:16;;;;;;;;;;;;;;;18.77;78.13;99343.13;4891099;29;19982;-69
2022/07/11 00:48:42;;;;;;;;;;;;;;;18.77;77.99;99328.47;4909677;29;20348;-71
2022/07/11 00:51:08;;;;;;;;;;;;;;;18.77;78.16;99325.69;4912073;29;19949;-71
2022/07/11 00:53:34;;;;;;;;;;;;;;;18.76;78.33;99326.84;4912147;29;19927;-70
2022/07/11 00:56:00;;;;;;;;;;;;;;;18.73;78.31;99319.25;4911057;29;19949;-71
2022/07/11 00:58:28;;;;;;;;;;;;;;;18.69;78.50;99317.16;4912660;29;19927;-70
2022/07/11 01:00:53;;;;;;;;;;;;;;;18.66;78.61;99312.31;4908516;29;19954;-69
2022/07/11 01:03:19;;;;;;;;;;;;;;;18.64;78.94;99314.59;4911462;29;19985;-70
2022/07/11 01:05:45;;;;;;;;;;;;;;;18.60;79.15;99305.34;4909580;29;19949;-70
2022/07/11 01:08:11;;;;;;;;;;;;;;;18.59;79.33;99303.72;4910129;29;19927;-71
2022/07/11 01:10:36;;;;;;;;;;;;;;;18.56;79.66;99299.69;4908224;29;19958;-69
2022/07/11 01:13:02;;;;;;;;;;;;;;;18.55;79.97;99302.81;4909474;29;20443;-70
2022/07/11 01:15:29;;;;;;;;;;;;;;;18.58;80.02;99306.84;4909939;29;19942;-68
2022/07/11 01:17:55;;;;;;;;;;;;;;;18.60;79.62;99297.03;4910098;29;19927;-69
2022/07/11 01:20:24;;;;;;;;;;;;;;;18.63;79.61;99310.19;4909091;29;20501;-68
2022/07/11 01:22:52;;;;;;;;;;;;;;;18.68;79.54;99307.22;4925178;29;20025;-69
2022/07/11 01:25:31;;;;;;;;;;;;;;;18.74;79.43;99307.84;4910839;29;19931;-69
2022/07/11 01:27:58;;;;;;;;;;;;;;;18.77;79.34;99304.38;4909882;29;19982;-68
2022/07/11 01:30:24;;;;;;;;;;;;;;;18.82;78.96;99303.34;4892781;29;19982;-69
2022/07/11 01:32:50;;;;;;;;;;;;;;;18.82;78.94;99295.84;4910916;29;19927;-68
2022/07/11 01:35:16;;;;;;;;;;;;;;;18.85;78.68;99295.16;4910222;29;19934;-69
2022/07/11 01:37:41;;;;;;;;;;;;;;;18.91;78.69;99287.44;4909171;29;20367;-68
2022/07/11 01:40:08;;;;;;;;;;;;;;;18.94;78.44;99294.25;4908670;29;19926;-68
2022/07/11 01:42:35;;;;;;;;;;;;;;;18.97;77.85;99290.78;4910791;29;19927;-70
2022/07/11 01:45:01;;;;;;;;;;;;;;;18.97;77.22;99283.31;4907469;29;19958;-69
2022/07/11 01:47:29;;;;;;;;;;;;;;;18.99;77.19;99285.75;4927061;29;19974;-68
2022/07/11 01:49:55;;;;;;;;;;;;;;;19.02;76.97;99278.72;4910207;29;19930;-68
2022/07/11 01:52:21;;;;;;;;;;;;;;;19.08;77.05;99266.25;4909034;29;19933;-69
2022/07/11 01:54:47;;;;;;;;;;;;;;;19.14;76.55;99259.34;4907668;29;20050;-68
2022/07/11 01:57:13;;;;;;;;;;;;;;;19.21;75.96;99258.75;4923529;29;19926;-69
2022/07/11 01:59:40;;;;;;;;;;;;;;;19.20;76.00;99252.41;4906056;29;19974;-69
2022/07/11 02:02:06;;;;;;;;;;;;;;;19.33;75.74;99260.72;4909707;29;20103;-72
2022/07/11 02:04:31;;;;;;;;;;;;;;;19.36;75.01;99258.06;4925747;29;20376;-71
2022/07/11 02:06:57;;;;;;;;;;;;;;;19.41;74.72;99257.00;4909878;29;19934;-69
2022/07/11 02:09:23;;;;;;;;;;;;;;;19.47;74.58;99252.03;4910283;29;20442;-70
2022/07/11 02:11:49;;;;;;;;;;;;;;;19.51;74.00;99255.72;4907518;29;19969;-68
2022/07/11 02:14:14;;;;;;;;;;;;;;;19.56;73.87;99255.50;4924416;29;19934;-68
2022/07/11 02:16:42;;;;;;;;;;;;;;;19.52;73.71;99243.50;4908347;29;19934;-67
2022/07/11 02:19:08;;;;;;;;;;;;;;;19.60;73.08;99259.19;4909521;29;20033;-69
2022/07/11 02:21:33;;;;;;;;;;;;;;;19.59;72.88;99252.00;4908206;29;20073;-69
2022/07/11 02:23:59;;;;;;;;;;;;;;;19.60;72.71;99261.16;4909713;29;19926;-69
2022/07/11 02:26:25;;;;;;;;;;;;;;;19.58;72.71;99249.59;4910796;29;19973;-69
2022/07/11 02:28:51;;;;;;;;;;;;;;;19.58;72.76;99249.59;4909668;29;19934;-67
2022/07/11 02:31:16;;;;;;;;;;;;;;;19.58;72.76;99253.19;4904963;29;19949;-68
2022/07/11 02:33:43;;;;;;;;;;;;;;;19.56;72.81;99253.50;4910357;29;20356;-68
2022/07/11 02:36:10;;;;;;;;;;;;;;;19.55;72.72;99259.44;4908854;29;19938;-68
2022/07/11 02:38:36;;;;;;;;;;;;;;;19.54;73.08;99260.59;4908064;29;19955;-66
2022/07/11 02:41:02;;;;;;;;;;;;;;;19.51;73.06;99259.31;4907408;29;20450;-69
2022/07/11 02:43:27;;;;;;;;;;;;;;;19.51;73.32;99270.41;4908103;29;19986;-70
2022/07/11 02:45:54;;;;;;;;;;;;;;;19.50;72.68;99276.28;4909032;29;19926;-70
2022/07/11 02:48:20;;;;;;;;;;;;;;;19.48;72.68;99284.13;4907906;29;20522;-69
2022/07/11 02:50:47;;;;;;;;;;;;;;;19.46;72.36;99278.94;4905929;29;19953;-69
2022/07/11 02:53:12;;;;;;;;;;;;;;;19.46;72.74;99276.19;4909884;29;19927;-71
2022/07/11 02:55:38;;;;;;;;;;;;;;;19.45;73.15;99274.56;4908535;29;19927;-71
2022/07/11 02:58:04;;;;;;;;;;;;;;;19.45;72.86;99279.28;4909390;29;19931;-70
2022/07/11 03:00:30;;;;;;;;;;;;;;;19.41;73.20;99277.22;4910368;29;20030;-69
2022/07/11 03:02:56;;;;;;;;;;;;;;;19.49;72.98;99280.19;4908480;29;20022;-71
2022/07/11 03:05:21;;;;;;;;;;;;;;;19.51;73.11;99266.81;4920424;29;20029;-70
2022/07/11 03:07:49;;;;;;;;;;;;;;;19.54;72.85;99263.34;4905447;29;20001;-69
2022/07/11 03:10:15;;;;;;;;;;;;;;;19.59;72.80;99262.28;4908925;29;19927;-69
2022/07/11 03:12:41;;;;;;;;;;;;;;;19.59;72.64;99262.28;4924001;29;20018;-69
2022/07/11 03:15:07;;;;;;;;;;;;;;;19.65;72.70;99258.94;4908039;29;19927;-70
2022/07/11 03:17:33;;;;;;;;;;;;;;;19.75;72.61;99260.44;4922414;29;20013;-70
2022/07/11 03:20:00;;;;;;;;;;;;;;;19.78;72.14;99259.72;4922821;29;20037;-70
2022/07/11 03:22:26;;;;;;;;;;;;;;;19.84;72.41;99269.41;4908453;29;19973;-71
2022/07/11 03:24:53;;;;;;;;;;;;;;;19.87;72.26;99264.31;4908409;29;20407;-71
2022/07/11 03:27:19;;;;;;;;;;;;;;;19.90;71.88;99266.38;4909149;29;19933;-71
2022/07/11 03:29:45;;;;;;;;;;;;;;;19.95;71.69;99263.41;4907643;29;19926;-70
2022/07/11 03:32:10;;;;;;;;;;;;;;;20.08;71.29;99266.94;4906796;29;19962;-68
2022/07/11 03:34:36;;;;;;;;;;;;;;;20.20;71.30;99266.09;4924604;29;19927;-66
2022/07/11 03:37:02;;;;;;;;;;;;;;;20.31;70.86;99260.84;4909167;29;19970;-68
2022/07/11 03:39:28;;;;;;;;;;;;;;;20.40;70.21;99261.50;4909950;29;20018;-70
2022/07/11 03:41:55;;;;;;;;;;;;;;;20.37;70.15;99262.19;4907847;29;19927;-69
2022/07/11 03:44:21;;;;;;;;;;;;;;;20.36;70.31;99258.59;4908858;29;19966;-67
2022/07/11 03:46:47;;;;;;;;;;;;;;;20.38;70.25;99269.38;4906917;29;19962;-69
2022/07/11 03:49:13;;;;;;;;;;;;;;;20.43;69.82;99260.78;4921061;29;19927;-70
2022/07/11 03:51:39;;;;;;;;;;;;;;;20.50;69.51;99266.53;4912458;29;19927;-70
2022/07/11 03:54:05;;;;;;;;;;;;;;;20.61;68.92;99268.81;4911806;29;19931;-72
2022/07/11 03:56:31;;;;;;;;;;;;;;;20.58;68.61;99275.03;4910350;29;19973;-69
2022/07/11 03:58:58;;;;;;;;;;;;;;;20.50;69.33;99274.88;4925733;29;19926;-70
2022/07/11 04:01:24;;;;;;;;;;;;;;;20.47;69.61;99271.97;4910616;29;20462;-69
2022/07/11 04:03:49;;;;;;;;;;;;;;;20.49;69.26;99269.66;4910971;29;20029;-71
2022/07/11 04:06:15;;;;;;;;;;;;;;;20.62;69.33;99262.88;4910144;29;20454;-71
2022/07/11 04:08:41;;;;;;;;;;;;;;;20.87;68.75;99273.06;4911059;29;19934;-69
2022/07/11 04:11:07;;;;;;;;;;;;;;;21.03;68.19;99270.28;4911657;29;19931;-70
2022/07/11 04:13:33;;;;;;;;;;;;;;;21.15;67.87;99272.16;4913708;29;19931;-70
2022/07/11 04:16:00;;;;;;;;;;;;;;;21.15;67.46;99269.38;4913685;29;19926;-70
2022/07/11 04:18:26;;;;;;;;;;;;;;;21.22;67.22;99269.56;4913801;29;19981;-71
2022/07/11 04:20:52;;;;;;;;;;;;;;;21.30;66.49;99273.31;4911528;29;20379;-70
2022/07/11 04:23:18;;;;;;;;;;;;;;;21.43;66.46;99274.81;4909204;29;19926;-70
2022/07/11 04:25:43;;;;;;;;;;;;;;;21.48;66.23;99269.00;4911108;29;19931;-71
2022/07/11 04:28:09;;;;;;;;;;;;;;;21.56;66.19;99269.16;4910522;29;19934;-69
2022/07/11 04:30:35;;;;;;;;;;;;;;;21.65;66.07;99273.38;4926059;29;19927;-70
2022/07/11 04:33:02;;;;;;;;;;;;;;;21.74;65.60;99264.81;4907106;29;19927;-69
2022/07/11 04:35:28;;;;;;;;;;;;;;;21.81;65.37;99273.34;4910172;29;19933;-69
2022/07/11 04:37:54;;;;;;;;;;;;;;;21.84;65.29;99271.00;4909388;29;19973;-70
2022/07/11 04:40:23;;;;;;;;;;;;;;;21.79;65.45;99275.69;4925335;29;19950;-72
2022/07/11 04:42:49;;;;;;;;;;;;;;;21.77;65.54;99272.44;4911433;29;20026;-71
2022/07/11 04:45:15;;;;;;;;;;;;;;;21.77;65.63;99271.66;4907835;29;20025;-71
2022/07/11 04:47:41;;;;;;;;;;;;;;;21.80;65.62;99263.38;4929797;29;20387;-70
2022/07/11 04:50:09;;;;;;;;;;;;;;;21.88;64.60;99261.56;4911217;29;19926;-70
2022/07/11 04:52:35;;;;;;;;;;;;;;;21.91;64.50;99262.78;4911631;29;19954;-69
2022/07/11 04:55:00;;;;;;;;;;;;;;;21.93;64.19;99252.91;4913719;29;19958;-70
2022/07/11 04:57:26;;;;;;;;;;;;;;;21.98;63.50;99239.88;4909953;29;20364;-71
2022/07/11 04:59:52;;;;;;;;;;;;;;;21.99;63.02;99242.31;4911320;29;19927;-70
2022/07/11 05:02:18;;;;;;;;;;;;;;;22.03;63.68;99243.19;4910442;29;19977;-69
2022/07/11 05:04:44;;;;;;;;;;;;;;;22.12;63.34;99236.59;4911768;29;20029;-69
2022/07/11 05:07:13;;;;;;;;;;;;;;;22.17;63.11;99242.69;4911614;29;20454;-71
2022/07/11 05:09:39;;;;;;;;;;;;;;;22.19;63.18;99228.38;4909700;29;20488;-70
2022/07/11 05:12:06;;;;;;;;;;;;;;;22.22;63.04;99224.84;4911537;29;19935;-68
2022/07/11 05:14:32;;;;;;;;;;;;;;;22.31;62.94;99224.63;4910630;29;19953;-71
2022/07/11 05:16:57;;;;;;;;;;;;;;;22.38;62.19;99211.63;4910228;29;20419;-70
2022/07/11 05:19:23;;;;;;;;;;;;;;;22.45;62.32;99224.88;4910488;29;19982;-71
2022/07/11 05:21:49;;;;;;;;;;;;;;;22.50;61.64;99218.25;4909132;29;19942;-71
2022/07/11 05:24:18;;;;;;;;;;;;;;;22.51;61.28;99217.88;4909685;29;19927;-70
2022/07/11 05:26:44;;;;;;;;;;;;;;;22.51;61.49;99215.09;4905614;29;20382;-71
2022/07/11 05:29:10;;;;;;;;;;;;;;;22.60;60.66;99222.41;4902234;29;19934;-71
2022/07/11 05:31:36;;;;;;;;;;;;;;;22.69;60.05;99208.22;4901276;29;19927;-71
2022/07/11 05:34:02;;;;;;;;;;;;;;;22.72;59.81;99213.84;4903061;29;19927;-72
2022/07/11 05:36:28;;;;;;;;;;;;;;;22.79;59.97;99216.78;4904045;29;19927;-71
2022/07/11 05:38:54;;;;;;;;;;;;;;;22.87;59.38;99200.16;4903119;29;20363;-71
2022/07/11 05:41:21;;;;;;;;;;;;;;;23.01;59.01;99205.16;4905467;29;19934;-70
2022/07/11 05:43:47;;;;;;;;;;;;;;;23.00;58.93;99209.94;4913340;29;20263;-71
2022/07/11 05:46:13;;;;;;;;;;;;;;;22.93;59.15;99205.06;4913301;29;19927;-71
2022/07/11 05:48:38;;;;;;;;;;;;;;;22.96;58.95;99203.53;4912191;29;20432;-70
2022/07/11 05:51:05;;;;;;;;;;;;;;;23.05;58.22;99206.03;4910132;29;19927;-69
2022/07/11 05:53:31;;;;;;;;;;;;;;;23.17;58.08;99205.81;4925867;29;19958;-71
2022/07/11 05:55:56;;;;;;;;;;;;;;;23.32;57.40;99203.25;4908388;29;19927;-71
2022/07/11 05:58:24;;;;;;;;;;;;;;;23.46;56.49;99209.06;4924456;29;19928;-70
2022/07/11 06:00:50;;;;;;;;;;;;;;;23.57;56.38;99198.06;4910729;29;19977;-70
2022/07/11 06:03:16;;;;;;;;;;;;;;;23.67;55.84;99195.78;4909804;29;19962;-69
2022/07/11 06:05:41;;;;;;;;;;;;;;;23.75;55.65;99197.50;4899880;29;19949;-70
2022/07/11 06:10:52;;;;;;;;;;;;;;;23.98;55.76;99196.56;4891033;29;19936;-67
2022/07/11 06:13:18;;;;;;;;;;;;;;;24.11;55.47;99197.13;4894212;29;19928;-68
2022/07/11 06:15:47;;;;;;;;;;;;;;;24.18;55.47;99195.22;4905160;29;19953;-68
2022/07/11 06:18:12;;;;;;;;;;;;;;;24.28;54.97;99199.34;4909738;29;19931;-69
2022/07/11 06:20:38;;;;;;;;;;;;;;;24.38;55.20;99192.25;4909188;29;19942;-70
2022/07/11 06:23:05;;;;;;;;;;;;;;;24.48;54.98;99185.94;4909863;29;19927;-68
2022/07/11 06:25:33;;;;;;;;;;;;;;;24.58;54.52;99181.63;4923264;29;20355;-69
2022/07/11 06:28:00;;;;;;;;;;;;;;;24.70;53.69;99188.94;4891685;29;20033;-67
2022/07/11 06:30:26;;;;;;;;;;;;;;;24.86;53.29;99187.91;4924752;29;19942;-69
2022/07/11 06:32:53;;;;;;;;;;;;;;;25.13;52.90;99182.09;4906769;29;19930;-67
2022/07/11 06:35:19;;;;;;;;;;;;;;;25.33;52.12;99179.81;4909888;29;19934;-70
2022/07/11 06:37:45;;;;;;;;;;;;;;;25.43;52.02;99186.69;4924203;29;19927;-68
2022/07/11 06:40:11;;;;;;;;;;;;;;;25.55;51.51;99180.78;4910324;29;19927;-69
2022/07/11 06:42:37;;;;;;;;;;;;;;;25.66;51.38;99174.44;4907238;29;19927;-68
2022/07/11 06:45:07;;;;;;;;;;;;;;;25.85;50.96;99171.31;4924627;29;19970;-70
2022/07/11 06:47:33;;;;;;;;;;;;;;;25.91;50.61;99172.56;4906489;29;20276;-69
2022/07/11 06:50:00;;;;;;;;;;;;;;;26.03;50.29;99174.19;4924699;29;19954;-69
2022/07/11 06:52:25;;;;;;;;;;;;;;;26.26;49.66;99169.47;4907222;29;19955;-69
2022/07/11 06:54:51;;;;;;;;;;;;;;;26.51;49.19;99165.88;4912196;29;20422;-68
2022/07/11 06:57:17;;;;;;;;;;;;;;;26.69;48.73;99166.69;4903957;29;19958;-68
2022/07/11 06:59:43;;;;;;;;;;;;;;;26.89;48.10;99171.94;4904354;29;20045;-68
2022/07/11 07:02:08;;;;;;;;;;;;;;;27.07;47.41;99166.28;4908122;29;19926;-68
2022/07/11 07:04:34;;;;;;;;;;;;;;;27.25;47.22;99157.06;4891072;29;19927;-68
2022/07/11 07:07:02;;;;;;;;;;;;;;;27.38;46.66;99160.22;4909881;29;19967;-68
2022/07/11 07:09:27;;;;;;;;;;;;;;;27.48;46.67;99161.38;4910993;29;19927;-67
2022/07/11 07:11:54;;;;;;;;;;;;;;;27.66;46.80;99162.16;4910547;29;20045;-67
2022/07/11 07:14:20;;;;;;;;;;;;;;;27.91;45.68;99157.63;4910942;29;19933;-69
2022/07/11 07:16:45;;;;;;;;;;;;;;;28.09;45.60;99160.34;4910338;29;19926;-69
2022/07/11 07:19:11;;;;;;;;;;;;;;;27.99;45.54;99153.59;4904376;29;19930;-69
2022/07/11 07:21:37;;;;;;;;;;;;;;;27.83;45.88;99160.47;4227669;28;10000125;-69
2022/07/11 07:24:05;;;;;;;;;;;;;;;27.93;45.75;99155.19;4902639;29;20337;-67
2022/07/11 07:26:31;;;;;;;;;;;;;;;27.89;45.53;99160.84;4903101;29;20026;-70
2022/07/11 07:28:56;;;;;;;;;;;;;;;27.80;46.34;99160.50;4923760;29;20526;-69
2022/07/11 07:31:22;;;;;;;;;;;;;;;27.69;46.20;99154.94;4907983;29;19933;-70
2022/07/11 07:33:49;;;;;;;;;;;;;;;27.71;45.91;99158.13;4907945;29;19934;-69
2022/07/11 07:36:14;;;;;;;;;;;;;;;27.84;46.25;99159.28;4897210;29;19955;-69
2022/07/11 07:38:43;;;;;;;;;;;;;;;28.02;45.56;99145.13;4904725;29;20021;-69
2022/07/11 07:41:10;;;;;;;;;;;;;;;28.17;45.46;99145.88;4905990;29;20026;-67
2022/07/11 07:43:36;;;;;;;;;;;;;;;28.36;45.15;99140.91;4904680;29;20616;-69
2022/07/11 07:46:02;;;;;;;;;;;;;;;28.48;45.24;99148.06;4906689;29;20180;-69
2022/07/11 07:48:27;;;;;;;;;;;;;;;28.67;44.38;99146.69;4921114;29;20198;-68
2022/07/11 07:50:53;;;;;;;;;;;;;;;28.73;44.15;99144.25;4907296;29;19927;-68
2022/07/11 07:53:19;;;;;;;;;;;;;;;28.90;43.67;99141.72;4922310;29;19927;-68
2022/07/11 07:55:44;;;;;;;;;;;;;;;29.16;43.46;99134.63;4905957;29;19931;-68
2022/07/11 07:58:12;;;;;;;;;;;;;;;29.35;42.26;99136.03;4920540;29;19982;-69
2022/07/11 08:03:21;;;;;;;;;;;;;;;29.29;42.39;99127.22;4908564;29;19934;-69
2022/07/11 08:05:47;;;;;;;;;;;;;;;29.24;43.16;99129.72;4905707;29;19927;-70
2022/07/11 08:08:13;;;;;;;;;;;;;;;29.17;43.04;99127.75;4906468;29;19934;-70
2022/07/11 08:10:39;;;;;;;;;;;;;;;29.06;42.86;99133.50;4918673;29;20416;-71
2022/07/11 08:13:04;;;;;;;;;;;;;;;29.34;41.77;99122.34;4905265;29;20399;-71
2022/07/11 08:15:32;;;;;;;;;;;;;;;29.70;40.26;99139.63;4907821;29;19990;-71
2022/07/11 08:17:57;;;;;;;;;;;;;;;30.19;39.29;99127.31;4909465;29;19927;-70
2022/07/11 08:20:23;;;;;;;;;;;;;;;30.63;38.25;99129.47;4904957;29;19934;-68
2022/07/11 08:22:49;;;;;;;;;;;;;;;31.03;37.05;99129.59;4905023;29;19969;-69
2022/07/11 08:25:14;;;;;;;;;;;;;;;31.29;37.19;99117.84;4906124;29;20327;-68
2022/07/11 08:27:41;;;;;;;;;;;;;;;31.52;36.32;99131.88;4902827;29;20403;-69
2022/07/11 08:30:08;;;;;;;;;;;;;;;31.64;34.45;99126.78;4902178;29;19934;-69
2022/07/11 08:32:37;;;;;;;;;;;;;;;31.68;34.14;99113.38;4919153;29;20021;-70
2022/07/11 08:35:03;;;;;;;;;;;;;;;32.10;34.41;99119.34;4905633;29;20026;-69
2022/07/11 08:37:29;;;;;;;;;;;;;;;32.62;33.24;99116.91;4913420;29;19931;-70
2022/07/11 08:39:55;;;;;;;;;;;;;;;33.04;32.76;99115.44;4901493;29;20000;-67
2022/07/11 08:42:23;;;;;;;;;;;;;;;33.27;31.99;99102.28;4903305;29;19927;-69
2022/07/11 08:44:49;;;;;;;;;;;;;;;33.04;32.90;99109.78;4902453;29;19931;-66
2022/07/11 08:47:14;;;;;;;;;;;;;;;32.42;32.35;99111.34;4916923;29;20298;-69
2022/07/11 08:49:43;;;;;;;;;;;;;;;31.71;32.65;99106.88;4903542;29;19926;-68
2022/07/11 08:52:09;;;;;;;;;;;;;;;31.25;32.59;99107.41;4915612;29;19938;-69
2022/07/11 08:54:35;;;;;;;;;;;;;;;30.46;34.54;99115.22;4898027;29;19926;-69
2022/07/11 08:57:01;;;;;;;;;;;;;;;30.21;35.39;99115.63;4899954;29;19986;-69
2022/07/11 08:59:31;;;;;;;;;;;;;;;30.33;35.92;99112.22;4915521;29;19927;-68
2022/07/11 09:01:58;;;;;;;;;;;;;;;30.98;34.09;99102.66;4905066;29;19927;-68
2022/07/11 09:04:24;;;;;;;;;;;;;;;31.86;32.73;99106.59;4902433;29;20366;-71
2022/07/11 09:06:52;;;;;;;;;;;;;;;32.62;31.88;99108.41;4901789;29;19927;-71
2022/07/11 09:09:17;;;;;;;;;;;;;;;32.37;31.97;99098.53;4899865;29;19931;-69
2022/07/11 09:11:50;;;;;;;;;;;;;;;31.66;33.24;99096.06;4903476;29;19927;-69
2022/07/11 09:14:20;;;;;;;;;;;;;;;31.76;33.85;99102.72;4902867;29;19934;-70
2022/07/11 09:16:51;;;;;;;;;;;;;;;31.96;33.30;99091.41;4904669;29;19927;-70
2022/07/11 09:19:20;;;;;;;;;;;;;;;32.11;33.95;99098.31;4920538;29;20014;-68
2022/07/11 09:27:39;;;;;;;;;;;;;;;33.53;30.99;99091.84;4903877;29;19974;-72
2022/07/11 09:30:15;;;;;;;;;;;;;;;34.25;30.27;99100.16;4902322;29;20013;-70
2022/07/11 09:32:42;;;;;;;;;;;;;;;34.79;29.56;99087.03;4905969;29;19927;-70
2022/07/11 09:35:10;;;;;;;;;;;;;;;35.34;28.13;99088.72;4915404;29;20013;-70
2022/07/11 09:37:45;;;;;;;;;;;;;;;35.42;28.18;99092.06;4903486;29;19927;-72
2022/07/11 09:40:11;;;;;;;;;;;;;;;35.45;28.08;99079.81;4903434;29;19933;-70
2022/07/11 09:42:45;;;;;;;;;;;;;;;35.48;27.54;99083.75;4902400;29;19927;-72
2022/07/11 09:45:12;;;;;;;;;;;;;;;35.62;28.05;99082.44;4901376;29;20321;-70
2022/07/11 09:47:42;;;;;;;;;;;;;;;35.88;27.06;99068.03;4900994;29;19931;-70
2022/07/11 09:50:08;;;;;;;;;;;;;;;35.80;27.14;99064.69;4900174;29;20284;-71
2022/07/11 09:52:34;;;;;;;;;;;;;;;35.95;26.95;99050.69;4899659;29;20450;-70
2022/07/11 09:55:02;;;;;;;;;;;;;;;36.15;26.60;99056.00;4899882;29;19934;-70
2022/07/11 09:57:30;;;;;;;;;;;;;;;36.13;26.13;99052.03;4896971;29;20330;-69
2022/07/11 09:59:57;;;;;;;;;;;;;;;36.04;26.16;99056.41;4900029;29;20026;-71
2022/07/11 10:02:23;;;;;;;;;;;;;;;36.29;24.75;99050.94;4907358;29;20029;-69
2022/07/11 10:04:49;;;;;;;;;;;;;;;36.60;24.04;99059.41;4904455;29;19978;-69
2022/07/11 10:07:15;;;;;;;;;;;;;;;36.96;23.34;99059.09;4893895;29;19933;-70
2022/07/11 10:09:41;;;;;;;;;;;;;;;37.04;22.40;99058.31;4217442;28;9999673;-71
2022/07/11 10:12:10;;;;;;;;;;;;;;;37.00;22.80;99054.81;4898597;29;19930;-67
2022/07/11 10:14:48;;;;;;;;;;;;;;;36.89;23.58;99054.50;4879275;29;20814;-71
2022/07/11 10:17:18;;;;;;;;;;;;;;;37.11;23.63;99050.72;4915469;29;20478;-69
2022/07/11 10:19:50;;;;;;;;;;;;;;;37.46;23.90;99051.09;4902386;29;20248;-71
2022/07/11 10:22:19;;;;;;;;;;;;;;;37.27;22.97;99058.13;4901125;29;19938;-70
2022/07/11 10:24:52;;;;;;;;;;;;;;;37.21;22.63;99060.03;4900893;29;19960;-70
2022/07/11 10:27:24;;;;;;;;;;;;;;;37.32;22.51;99049.72;4903146;29;19953;-69
2022/07/11 10:29:50;;;;;;;;;;;;;;;37.63;22.43;99041.44;4901694;29;19973;-70
2022/07/11 10:32:17;;;;;;;;;;;;;;;37.74;22.72;99042.47;4898507;29;19927;-69
2022/07/11 10:34:42;;;;;;;;;;;;;;;37.66;22.54;99052.66;4901436;29;19934;-70
2022/07/11 10:37:08;;;;;;;;;;;;;;;37.59;22.74;99053.78;4905908;29;19927;-69
2022/07/11 10:39:35;;;;;;;;;;;;;;;37.53;22.88;99040.69;4899864;29;19927;-70
2022/07/11 10:42:01;;;;;;;;;;;;;;;37.61;22.49;99039.03;4899374;29;19926;-69
2022/07/11 10:44:47;;;;;;;;;;;;;;;37.65;22.11;99051.09;4899206;29;20280;-70
2022/07/11 10:47:28;;;;;;;;;;;;;;;37.49;22.36;99048.59;4898909;29;20479;-70
2022/07/11 10:49:55;;;;;;;;;;;;;;;37.59;22.35;99044.44;4894089;29;19949;-69
2022/07/11 10:52:22;;;;;;;;;;;;;;;37.82;22.00;99022.19;4914979;29;20124;-71
2022/07/11 10:54:55;;;;;;;;;;;;;;;37.78;22.36;99035.81;4899681;29;19926;-71
2022/07/11 10:57:23;;;;;;;;;;;;;;;37.97;22.42;99048.72;4893974;29;19931;-70
2022/07/11 10:59:57;;;;;;;;;;;;;;;37.94;21.74;99040.34;4914539;29;19931;-71
2022/07/11 11:02:23;;;;;;;;;;;;;;;37.80;21.84;99024.75;4892352;29;19935;-72
2022/07/11 11:04:50;;;;;;;;;;;;;;;37.47;22.05;99040.50;4891830;29;19938;-71
2022/07/11 11:07:44;;;;;;;;;;;;;;;37.39;21.95;99037.19;4908266;29;19933;-70
2022/07/11 11:10:28;;;;;;;;;;;;;;;37.42;22.61;99041.94;4879400;29;19973;-69
2022/07/11 11:13:09;;;;;;;;;;;;;;;38.00;22.20;99018.47;4905343;29;19993;-70
2022/07/11 11:15:39;;;;;;;;;;;;;;;37.90;21.67;99026.25;4897439;29;20391;-70
2022/07/11 11:18:23;;;;;;;;;;;;;;;37.99;22.12;99029.09;4905502;29;19985;-68
2022/07/11 11:21:12;;;;;;;;;;;;;;;38.32;22.05;99032.38;4905785;29;19923;-68
2022/07/11 11:23:39;;;;;;;;;;;;;;;38.48;21.85;99023.41;4901249;29;20279;-67
2022/07/11 11:26:05;;;;;;;;;;;;;;;38.01;22.15;99020.84;4904023;29;19926;-69
2022/07/11 11:28:31;;;;;;;;;;;;;;;37.58;23.06;99035.13;4908738;29;19927;-69
2022/07/11 11:31:00;;;;;;;;;;;;;;;37.90;22.31;99009.13;4903944;29;19981;-69
2022/07/11 11:33:27;;;;;;;;;;;;;;;37.72;22.14;99016.53;4905795;29;19975;-69
2022/07/11 11:35:58;;;;;;;;;;;;;;;37.75;21.67;99023.31;4902295;29;19934;-70
2022/07/11 11:38:24;;;;;;;;;;;;;;;38.13;21.71;99026.81;4902783;29;19973;-69
2022/07/11 11:40:50;;;;;;;;;;;;;;;38.16;21.13;99031.53;4902454;29;19942;-70
2022/07/11 11:43:17;;;;;;;;;;;;;;;38.18;20.88;99017.56;4905199;29;19934;-69
2022/07/11 11:45:46;;;;;;;;;;;;;;;38.10;20.90;99014.28;4910063;29;19926;-69
2022/07/11 11:48:25;;;;;;;;;;;;;;;38.17;20.64;99033.09;4903550;29;19959;-70
2022/07/11 11:50:51;;;;;;;;;;;;;;;38.35;20.53;99034.25;4908387;29;20014;-69
2022/07/11 11:53:17;;;;;;;;;;;;;;;38.70;20.30;99023.06;4902513;29;20351;-68
2022/07/11 11:55:42;;;;;;;;;;;;;;;38.47;20.78;99027.53;4903955;29;19927;-69
2022/07/11 11:58:08;;;;;;;;;;;;;;;38.51;20.32;99022.44;4902707;29;19927;-70
2022/07/11 12:00:34;;;;;;;;;;;;;;;38.64;20.47;99019.31;4905566;29;20451;-70
2022/07/11 12:03:00;;;;;;;;;;;;;;;37.65;21.33;99019.72;4902777;29;19927;-70
2022/07/11 12:05:28;;;;;;;;;;;;;;;38.24;20.82;99029.09;4902051;29;19931;-69
2022/07/11 12:07:54;;;;;;;;;;;;;;;39.02;20.28;99008.34;4905013;29;20426;-68
2022/07/11 12:10:20;;;;;;;;;;;;;;;39.10;19.93;99017.31;4904034;29;19931;-68
2022/07/11 12:12:52;;;;;;;;;;;;;;;39.07;20.19;99026.88;4917715;29;20063;-69
2022/07/11 12:15:26;;;;;;;;;;;;;;;39.12;19.87;99040.50;4910685;29;20009;-67
2022/07/11 12:17:52;;;;;;;;;;;;;;;39.04;20.31;99025.00;4907066;29;19927;-68
2022/07/11 12:20:33;;;;;;;;;;;;;;;39.35;19.60;99007.38;4905942;29;19939;-67
2022/07/11 12:23:00;;;;;;;;;;;;;;;39.21;19.48;99023.22;4905233;29;19934;-71
2022/07/11 12:25:26;;;;;;;;;;;;;;;39.32;19.83;99030.44;4921238;29;19926;-69
2022/07/11 12:27:55;;;;;;;;;;;;;;;39.15;20.42;99023.13;4902864;29;19950;-69
2022/07/11 12:30:22;;;;;;;;;;;;;;;38.24;21.14;99021.31;4903146;29;19934;-72
2022/07/11 12:33:02;;;;;;;;;;;;;;;37.81;21.31;99040.56;4899036;29;19931;-67
2022/07/11 12:35:28;;;;;;;;;;;;;;;38.21;21.37;99018.66;4904024;29;19966;-69
2022/07/11 12:37:54;;;;;;;;;;;;;;;38.15;21.34;99036.44;4904458;29;19933;-69
2022/07/11 12:40:22;;;;;;;;;;;;;;;38.10;21.67;99033.47;4905929;29;20399;-71
2022/07/11 12:42:48;;;;;;;;;;;;;;;37.99;21.57;99029.09;4905141;29;19930;-68
2022/07/11 12:45:15;;;;;;;;;;;;;;;38.12;21.30;99033.78;4906177;29;19927;-66
2022/07/11 12:47:42;;;;;;;;;;;;;;;37.70;21.92;99012.56;4907120;29;19927;-67
2022/07/11 12:50:13;;;;;;;;;;;;;;;36.37;23.88;99040.06;4923794;29;19982;-68
2022/07/11 12:52:39;;;;;;;;;;;;;;;35.21;25.22;99037.69;4907764;29;19934;-68
2022/07/11 12:55:07;;;;;;;;;;;;;;;34.69;26.38;99045.63;4906080;29;19927;-67
2022/07/11 12:57:34;;;;;;;;;;;;;;;34.39;26.34;99036.50;4921584;29;19948;-68